KEGE

Details ICAO KEGE (EGE)
Name EAGLE CO RGNL
Region United States
Timezone America/Denver (UTC-7.0)
Plans Departing 159
Arriving 195
Stats Elevation 6,540 ft / 1,993 m (AMSL)
Location 39.642567° -106.917696°
Runways 1
Magnetic Variation 9.166° E
Sunrise 2017-12-11 14:20:01 UTC / 2017-12-11 07:20:01 Local
Sunset 2017-12-11 23:45:01 UTC / 2017-12-11 16:45:01 Local
Advertisement - Login to hide

Runways

ID Width Length Bearing (true) Bearing (mag) Surface Threshold Offset Overrun Length
07 150 ft / 46 m 7,981 ft / 2,433 m 81.90° 72.73° Asphalt 0 ft / 0 m 0 ft / 0 m
25 150 ft / 46 m 7,981 ft / 2,433 m 261.92° 252.75° Asphalt 0 ft / 0 m 0 ft / 0 m

Approach Navaids

Runway Type Ident Frequency Range Bearing (true) Bearing (mag) Slope Elevation
25 Localiser IESJ 109.75 MHz 18 nm / 33 km 258.91° 249.74° - 6,461 ft / 1,969 m (AMSL)
25 DME IESJ 109.75 MHz 18 nm / 33 km - - - 6,473 ft / 1,973 m (AMSL)

Map

Weather


0- 5 10 15 20 25 30 35+ Temperature / ° C

Clouds and Precipitation
Forecast for 2017-12-12 00:00 UTC. Updated 3 minutes ago

Ground ~20,000 ft ~40,000 ft Winds

METAR

KEGE 112256Z 00000KT 10SM CLR 06/M13 A3053 RMK AO2 SLP397 T00611128

TAF

KEGE 111723Z 1118/1218 VRB03KT P6SM SKC

Frequencies

Recorded 135.57 MHz ATIS
Unicom 119.80 MHz CTAF
Tower 119.80 MHz TWR
Recorded 135.57 MHz AWOS 3
Ground 121.80 MHz GND/CLNC DEL
Warning: Do not use this data for real-world aviation or navigation. No guarantee of current accuracy is given.